To NAV CANADA Home Page Login to a new session Search on AWWS site Feedback and Comments Disclaimer Vers la page française équivalente Tips FAQ What's new on the site To the Forecasts and Observations / NOTAM section To "File a Flight Plan" website Publications and other links Update of the User's profile FIC Telephone Numbers My Weather Data Folder Route Weather Data Regional Weather Data Local Weather Data To the Forecasts and Observations / NOTAM section
Request Generated 12/04/2016 at 22:18:48 UTC . Weather information available at that time is displayed.

METAR/TAF

CALGARY INTL/AB    

SPECI CYYC 042215Z 34005KT 12SM BKN057 OVC070 M05/M08 A2963 RMK
SC7AC1 SLP096=
METAR CYYC 042200Z 34007KT 12SM -SN BKN050 OVC062 M05/M07 A2962 RMK
SC6SC2 SLP094=
METAR CYYC 042100Z 34007KT 7SM -SN SCT015 BKN034 OVC040 M05/M07 A2962
RMK SC3SC3SC2 /S04/ SLP089=
SPECI CYYC 042038Z 01008KT 5SM -SN SCT014 BKN037 OVC045 M05/M07 A2961
RMK SC3SC3SC2 SLP086=
SPECI CYYC 042029Z CCA 02010KT 2 1/2SM -SN BKN010 BKN029 OVC033
M05/M07 A2961 RMK SN3SC2SC2SC1 SLP086=
SPECI CYYC 042029Z 02010KT 2 1/2SM -SN BKN010 BKN029 OVC029 M05/M07
A2961 RMK SN3SC2SC2SC1 SLP086=
SPECI CYYC 042017Z 02013KT 1SM R29/5500VP6000FT/U -SN BKN009 BKN016
OVC024 M05/M07 A2961 RMK SN4SC2SC1SC1 SLP087=
METAR CYYC 042000Z CCA 36011KT 5/8SM R29/5500FT/N -SN VV006 M05/M06
A2961 RMK SN8 /S03/ SLP086=
METAR CYYC 042000Z 36011KT 5/8SM R29/5500FT/N -SN VV006 M05/M06 A2961
RMK SN8 /S01/ SLP086=

TAF CYYC 042038Z 0421/0518 02015KT 6SM -SN SCT015 OVC025 TEMPO
0421/0422 3/4SM -SN VV008
FM042200 32008KT P6SM SCT020 BKN070 TEMPO 0422/0424 P6SM -SN
FM050000 35010KT P6SM FEW025 SCT120
FM050700 36010G20KT 5SM -SN SCT008 OVC020 TEMPO 0507/0518 P6SM
NSW SCT020 BKN060
RMK NXT FCST BY 050000Z=
Your time UTC time
Weather data provided by Environment Canada and NAV CANADA